createdAt,value
2022-08-05T00:01:36.304Z,26.40
2022-08-05T00:04:17.183Z,26.40
2022-08-05T00:06:47.223Z,26.39
2022-08-05T00:09:19.475Z,26.39
2022-08-05T00:11:55.540Z,26.38
2022-08-05T00:14:27.676Z,26.40
2022-08-05T00:16:58.022Z,26.40
2022-08-05T00:19:33.273Z,26.38
2022-08-05T00:22:11.362Z,26.38
2022-08-05T00:24:42.378Z,26.38
2022-08-05T00:27:14.048Z,26.35
2022-08-05T00:29:46.513Z,26.36
2022-08-05T00:32:15.815Z,26.33
2022-08-05T00:35:04.725Z,26.34
2022-08-05T00:37:50.763Z,26.35
2022-08-05T00:40:26.931Z,26.34
2022-08-05T00:42:58.111Z,26.34
2022-08-05T00:45:38.765Z,26.33
2022-08-05T00:48:09.439Z,26.32
2022-08-05T00:50:39.509Z,26.32
2022-08-05T00:54:00.195Z,26.31
2022-08-05T00:55:59.215Z,26.31
2022-08-05T00:58:28.719Z,26.31
2022-08-05T01:00:58.528Z,26.30
2022-08-05T01:03:31.063Z,26.29
2022-08-05T01:06:05.490Z,26.29
2022-08-05T01:08:42.951Z,26.29
2022-08-05T01:11:21.928Z,26.29
2022-08-05T01:14:08.730Z,26.28
2022-08-05T01:16:47.163Z,26.28
2022-08-05T01:19:46.104Z,26.28
2022-08-05T01:22:28.083Z,26.27
2022-08-05T01:25:08.433Z,26.28
2022-08-05T01:28:04.268Z,26.28
2022-08-05T01:30:33.489Z,26.26
2022-08-05T01:33:04.135Z,26.27
2022-08-05T01:35:52.192Z,26.26
2022-08-05T01:38:27.399Z,26.26
2022-08-05T01:40:59.375Z,26.26
2022-08-05T01:43:29.430Z,26.26
2022-08-05T01:45:58.380Z,26.23
2022-08-05T01:48:37.000Z,26.21
2022-08-05T01:51:12.426Z,26.20
2022-08-05T01:53:58.347Z,26.18
2022-08-05T01:58:10.809Z,26.17
2022-08-05T01:59:22.122Z,26.15
2022-08-05T02:01:51.075Z,26.15
2022-08-05T02:04:19.925Z,26.15
2022-08-05T02:06:48.435Z,26.16
2022-08-05T02:09:16.953Z,26.15
2022-08-05T02:11:52.868Z,26.15
2022-08-05T02:14:28.915Z,26.15
2022-08-05T02:17:04.572Z,26.16
2022-08-05T02:19:41.370Z,26.15
2022-08-05T02:22:25.849Z,26.16
2022-08-05T02:25:03.659Z,26.15
2022-08-05T02:27:57.896Z,26.15
2022-08-05T02:30:23.323Z,26.16
2022-08-05T02:32:56.996Z,26.16
2022-08-05T02:35:28.061Z,26.13
2022-08-05T02:38:02.254Z,26.12
2022-08-05T02:40:31.147Z,26.13
2022-08-05T02:42:59.645Z,26.14
2022-08-05T02:45:52.485Z,26.16
2022-08-05T02:48:18.094Z,26.16
2022-08-05T02:50:48.485Z,26.16
2022-08-05T02:53:20.822Z,26.13
2022-08-05T02:55:55.079Z,26.13
2022-08-05T02:58:30.353Z,26.12
2022-08-05T03:01:02.627Z,26.11
2022-08-05T03:03:34.331Z,26.14
2022-08-05T03:06:53.881Z,26.13
2022-08-05T03:09:08.311Z,26.10
2022-08-05T03:11:56.678Z,26.10
2022-08-05T03:14:25.419Z,26.08
2022-08-05T03:16:56.224Z,26.07
2022-08-05T03:19:34.212Z,26.06
2022-08-05T03:22:16.415Z,26.09
2022-08-05T03:24:50.683Z,26.09
2022-08-05T03:27:19.746Z,26.09
2022-08-05T03:30:08.483Z,26.08
2022-08-05T03:32:38.696Z,26.07
2022-08-05T03:35:09.085Z,26.06
2022-08-05T03:37:46.014Z,26.05
2022-08-05T03:40:24.387Z,26.05
2022-08-05T03:43:16.020Z,26.05
2022-08-05T03:45:57.713Z,26.06
2022-08-05T03:48:29.213Z,26.06
2022-08-05T03:52:39.199Z,26.06
2022-08-05T03:55:50.895Z,26.06
2022-08-05T03:56:47.069Z,26.07
2022-08-05T03:59:20.267Z,26.08
2022-08-05T04:01:51.169Z,26.05
2022-08-05T04:04:22.077Z,26.05
2022-08-05T04:06:54.914Z,26.07
2022-08-05T04:09:26.431Z,26.07
2022-08-05T04:11:56.686Z,26.06
2022-08-05T04:14:30.331Z,26.06
2022-08-05T04:17:02.937Z,26.06
2022-08-05T04:19:32.969Z,26.05
2022-08-05T04:22:09.392Z,26.05
2022-08-05T04:24:44.090Z,26.04
2022-08-05T04:27:15.188Z,26.05
2022-08-05T04:29:43.918Z,26.06
2022-08-05T04:32:13.686Z,26.08
2022-08-05T04:34:49.896Z,26.09
2022-08-05T04:37:31.573Z,26.10
2022-08-05T04:40:14.847Z,26.09
2022-08-05T04:42:48.095Z,26.10
2022-08-05T04:45:30.980Z,26.10
2022-08-05T04:48:07.032Z,26.09
2022-08-05T04:51:01.999Z,26.11
2022-08-05T04:53:33.609Z,26.12
2022-08-05T04:56:32.399Z,26.13
2022-08-05T04:58:52.986Z,26.15
2022-08-05T05:02:05.511Z,26.15
2022-08-05T05:04:10.228Z,26.14
2022-08-05T05:06:44.748Z,26.14
2022-08-05T05:09:17.242Z,26.16
2022-08-05T05:11:54.151Z,26.15
2022-08-05T05:14:28.080Z,26.17
2022-08-05T05:17:00.843Z,26.19
2022-08-05T05:19:36.279Z,26.19
2022-08-05T05:22:23.986Z,26.20
2022-08-05T05:24:57.052Z,26.19
2022-08-05T05:27:41.677Z,26.19
2022-08-05T05:30:30.717Z,26.21
2022-08-05T05:33:09.030Z,26.19
2022-08-05T05:35:45.330Z,26.20
2022-08-05T05:38:15.115Z,26.23
2022-08-05T05:40:51.913Z,26.24
2022-08-05T05:43:22.315Z,26.24
2022-08-05T05:45:56.842Z,26.24
2022-08-05T05:48:27.742Z,26.27
2022-08-05T05:50:56.342Z,26.28
2022-08-05T05:53:26.273Z,26.28
2022-08-05T05:56:00.843Z,26.28
2022-08-05T05:58:32.497Z,26.26
2022-08-05T06:01:12.465Z,26.28
2022-08-05T06:04:00.537Z,26.29
2022-08-05T06:06:31.382Z,26.31
2022-08-05T06:09:04.750Z,26.39
2022-08-05T06:11:33.443Z,26.35
2022-08-05T06:14:02.264Z,26.39
2022-08-05T06:16:36.755Z,26.38
2022-08-05T06:19:07.425Z,26.38
2022-08-05T06:21:38.344Z,26.37
2022-08-05T06:24:12.714Z,26.34
2022-08-05T06:26:51.364Z,26.30
2022-08-05T06:29:43.048Z,26.31
2022-08-05T06:32:20.912Z,26.37
2022-08-05T06:34:56.716Z,26.38
2022-08-05T06:37:57.020Z,26.39
2022-08-05T06:40:18.478Z,26.40
2022-08-05T06:42:51.751Z,26.40
2022-08-05T06:46:02.882Z,26.41
2022-08-05T06:48:37.107Z,26.42
2022-08-05T06:51:00.213Z,26.41
2022-08-05T06:53:29.518Z,26.42
2022-08-05T06:56:00.114Z,26.43
2022-08-05T06:58:35.377Z,26.44
2022-08-05T07:01:06.079Z,26.44
2022-08-05T07:03:34.857Z,26.45
2022-08-05T07:06:06.266Z,26.46
2022-08-05T07:08:47.906Z,26.45
2022-08-05T07:11:22.379Z,26.47
2022-08-05T07:14:15.855Z,26.43
2022-08-05T07:18:00.931Z,26.48
2022-08-05T07:20:31.296Z,26.51
2022-08-05T07:22:30.234Z,26.54
2022-08-05T07:25:22.620Z,26.56
2022-08-05T07:27:57.134Z,26.49
2022-08-05T07:30:31.993Z,26.54
2022-08-05T07:33:01.918Z,26.56
2022-08-05T07:36:02.938Z,26.59
2022-08-05T07:38:34.513Z,26.62
2022-08-05T07:42:07.246Z,26.65
2022-08-05T07:43:57.835Z,26.68
2022-08-05T07:46:27.335Z,26.69
2022-08-05T07:49:02.440Z,26.69
2022-08-05T07:51:36.663Z,26.69
2022-08-05T07:54:08.515Z,26.71
2022-08-05T07:57:01.306Z,26.71
2022-08-05T07:59:39.047Z,26.74
2022-08-05T08:02:15.968Z,26.74
2022-08-05T08:04:47.639Z,26.75
2022-08-05T08:07:17.910Z,26.78
2022-08-05T08:09:46.825Z,26.76
2022-08-05T08:12:35.673Z,26.76
2022-08-05T08:15:14.269Z,26.78
2022-08-05T08:17:49.836Z,26.79
2022-08-05T08:21:00.085Z,26.77
2022-08-05T08:24:02.093Z,26.80
2022-08-05T08:26:02.662Z,26.83
2022-08-05T08:28:37.166Z,26.82
2022-08-05T08:31:23.151Z,26.86
2022-08-05T08:33:55.378Z,26.88
2022-08-05T08:36:38.538Z,26.90
2022-08-05T08:39:15.708Z,26.91
2022-08-05T08:41:50.974Z,26.91
2022-08-05T08:45:17.203Z,26.90
2022-08-05T08:47:47.149Z,26.94
2022-08-05T08:50:06.224Z,26.90
2022-08-05T08:52:53.141Z,26.92
2022-08-05T08:56:02.444Z,26.95
2022-08-05T08:58:13.041Z,26.97
2022-08-05T09:00:42.893Z,26.94
2022-08-05T09:03:16.257Z,26.91
2022-08-05T09:06:09.203Z,26.91
2022-08-05T09:08:40.376Z,26.94
2022-08-05T09:11:13.704Z,26.95
2022-08-05T09:14:09.195Z,26.97
2022-08-05T09:16:32.541Z,26.96
2022-08-05T09:19:06.868Z,26.99
2022-08-05T09:22:17.652Z,27.05
2022-08-05T09:24:24.405Z,27.07
2022-08-05T09:26:56.331Z,27.08
2022-08-05T09:29:44.757Z,27.02
2022-08-05T09:32:43.067Z,27.03
2022-08-05T09:35:26.303Z,27.06
2022-08-05T09:38:12.893Z,27.07
2022-08-05T09:40:53.569Z,27.06
2022-08-05T09:43:41.138Z,27.10
2022-08-05T09:46:27.480Z,27.12
2022-08-05T09:49:07.930Z,27.07
2022-08-05T09:51:49.687Z,27.05
2022-08-05T09:54:21.438Z,27.12
2022-08-05T09:57:01.333Z,27.10
2022-08-05T09:59:37.053Z,27.05
2022-08-05T10:02:06.296Z,27.09
2022-08-05T10:04:39.701Z,27.33
2022-08-05T10:07:19.570Z,27.33
2022-08-05T10:10:13.728Z,27.34
2022-08-05T10:12:50.538Z,27.45
2022-08-05T10:15:25.632Z,27.27
2022-08-05T10:18:16.719Z,27.33
2022-08-05T10:20:47.745Z,27.38
2022-08-05T10:23:33.980Z,27.45
2022-08-05T10:26:14.313Z,27.43
2022-08-05T10:28:43.969Z,27.69
2022-08-05T10:33:01.408Z,27.41
2022-08-05T10:34:03.612Z,27.49
2022-08-05T10:36:32.165Z,27.61
2022-08-05T10:39:11.793Z,27.77
2022-08-05T10:41:48.721Z,27.51
2022-08-05T10:44:20.095Z,27.42
2022-08-05T10:46:53.942Z,27.29
2022-08-05T10:49:27.251Z,27.25
2022-08-05T10:52:05.087Z,27.23
2022-08-05T10:55:04.108Z,27.23
2022-08-05T10:57:34.275Z,27.29
2022-08-05T11:00:19.694Z,27.53
2022-08-05T11:03:23.239Z,27.54
2022-08-05T11:06:15.974Z,27.86
2022-08-05T11:09:17.188Z,27.62
2022-08-05T11:11:53.387Z,27.46
2022-08-05T11:14:49.348Z,27.45
2022-08-05T11:17:57.130Z,27.51
2022-08-05T11:20:44.401Z,27.81
2022-08-05T11:24:03.913Z,27.63
2022-08-05T11:26:31.881Z,27.55
2022-08-05T11:29:06.930Z,28.03
2022-08-05T11:31:57.742Z,28.32
2022-08-05T11:34:39.886Z,27.77
2022-08-05T11:38:28.579Z,27.57
2022-08-05T11:41:35.289Z,27.53
2022-08-05T11:44:04.763Z,27.64
2022-08-05T11:47:09.435Z,27.79
2022-08-05T11:49:27.583Z,28.05
2022-08-05T11:51:57.524Z,27.85
2022-08-05T11:54:32.843Z,27.70
2022-08-05T11:57:08.288Z,27.77
2022-08-05T11:59:52.717Z,28.22
2022-08-05T12:02:31.603Z,27.91
2022-08-05T12:05:06.838Z,27.80
2022-08-05T12:08:08.420Z,27.75
2022-08-05T12:10:38.424Z,27.77
2022-08-05T12:13:18.767Z,27.80
2022-08-05T12:16:14.542Z,27.82
2022-08-05T12:18:52.739Z,27.81
2022-08-05T12:21:24.357Z,27.41
2022-08-05T12:24:00.135Z,27.66
2022-08-05T12:26:34.035Z,27.68
2022-08-05T12:29:03.244Z,28.04
2022-08-05T12:31:41.498Z,27.94
2022-08-05T12:34:21.324Z,27.89
2022-08-05T12:36:51.910Z,28.00
2022-08-05T12:39:21.748Z,27.97
2022-08-05T12:41:57.904Z,27.88
2022-08-05T12:44:33.189Z,27.48
2022-08-05T12:47:02.900Z,27.59
2022-08-05T12:50:03.725Z,27.64
2022-08-05T12:52:39.625Z,27.63
2022-08-05T12:55:22.224Z,27.64
2022-08-05T12:58:38.235Z,27.60
2022-08-05T13:02:03.019Z,27.58
2022-08-05T13:03:38.926Z,27.56
2022-08-05T13:06:16.568Z,27.54
2022-08-05T13:08:50.850Z,27.53
2022-08-05T13:11:25.429Z,27.55
2022-08-05T13:14:36.004Z,27.52
2022-08-05T13:17:10.610Z,27.51
2022-08-05T13:19:40.348Z,27.54
2022-08-05T13:22:28.314Z,27.51
2022-08-05T13:25:00.427Z,27.51
2022-08-05T13:27:35.534Z,27.52
2022-08-05T13:30:36.798Z,27.48
2022-08-05T13:33:01.144Z,27.49
2022-08-05T13:35:43.204Z,27.48
2022-08-05T13:38:24.402Z,27.49
2022-08-05T13:41:00.635Z,27.49
2022-08-05T13:43:45.618Z,27.49
2022-08-05T13:46:35.684Z,27.49
2022-08-05T13:49:10.586Z,27.50
2022-08-05T13:51:46.352Z,27.48
2022-08-05T13:54:24.830Z,27.51
2022-08-05T13:56:54.014Z,27.51
2022-08-05T13:59:24.418Z,27.51
2022-08-05T14:01:57.444Z,27.50
2022-08-05T14:04:49.637Z,27.50
2022-08-05T14:07:26.099Z,27.49
2022-08-05T14:10:11.692Z,27.48
2022-08-05T14:12:42.932Z,27.50
2022-08-05T14:16:04.687Z,27.48
2022-08-05T14:18:06.123Z,27.50
2022-08-05T14:20:47.001Z,27.50
2022-08-05T14:23:23.951Z,27.50
2022-08-05T14:25:58.805Z,27.53
2022-08-05T14:28:28.990Z,27.51
2022-08-05T14:30:57.799Z,27.50
2022-08-05T14:33:26.255Z,27.51
2022-08-05T14:35:55.029Z,27.50
2022-08-05T14:38:31.883Z,27.51
2022-08-05T14:41:06.931Z,27.51
2022-08-05T14:43:59.392Z,27.52
2022-08-05T14:46:28.812Z,27.52
2022-08-05T14:49:03.447Z,27.53
2022-08-05T14:51:36.067Z,27.52
2022-08-05T14:54:26.524Z,27.52
2022-08-05T14:56:56.192Z,27.52
2022-08-05T14:59:24.620Z,27.52
2022-08-05T15:01:53.781Z,27.52
2022-08-05T15:04:23.007Z,27.51
2022-08-05T15:06:55.747Z,27.52
2022-08-05T15:09:52.169Z,27.51
2022-08-05T15:12:16.586Z,27.53
2022-08-05T15:14:50.008Z,27.56
2022-08-05T15:17:46.788Z,27.54
2022-08-05T15:20:18.558Z,27.57
2022-08-05T15:22:54.137Z,27.58
2022-08-05T15:25:51.301Z,27.56
2022-08-05T15:28:15.507Z,27.58
2022-08-05T15:30:46.262Z,27.57
2022-08-05T15:33:56.464Z,27.55
2022-08-05T15:36:04.711Z,27.57
2022-08-05T15:38:41.059Z,27.60
2022-08-05T15:41:21.833Z,27.59
2022-08-05T15:43:54.905Z,27.59
2022-08-05T15:46:24.837Z,27.60
2022-08-05T15:49:00.753Z,27.60
2022-08-05T15:52:13.061Z,27.60
2022-08-05T15:54:34.367Z,27.60
2022-08-05T15:57:07.650Z,27.61
2022-08-05T15:59:38.440Z,27.63
2022-08-05T16:02:14.312Z,27.61
2022-08-05T16:04:43.954Z,27.62
2022-08-05T16:07:13.362Z,27.60
2022-08-05T16:09:42.203Z,27.60
2022-08-05T16:12:12.312Z,27.60
2022-08-05T16:14:42.256Z,27.62
2022-08-05T16:17:12.373Z,27.63
2022-08-05T16:20:04.391Z,27.65
2022-08-05T16:22:33.945Z,27.67
2022-08-05T16:25:08.207Z,27.66
2022-08-05T16:28:00.850Z,27.64
2022-08-05T16:30:30.886Z,27.65
2022-08-05T16:33:00.497Z,27.67
2022-08-05T16:35:32.507Z,27.65
2022-08-05T16:38:18.880Z,27.66
2022-08-05T16:40:55.330Z,27.65
2022-08-05T16:43:28.995Z,27.66
2022-08-05T16:46:06.265Z,27.66
2022-08-05T16:48:41.230Z,27.65
2022-08-05T16:51:11.152Z,27.64
2022-08-05T16:54:04.897Z,27.64
2022-08-05T16:56:30.687Z,27.64
2022-08-05T16:59:00.975Z,27.63
2022-08-05T17:01:53.614Z,27.64
2022-08-05T17:04:26.345Z,27.64
2022-08-05T17:07:00.242Z,27.67
2022-08-05T17:09:29.858Z,27.66
2022-08-05T17:11:59.977Z,27.65
2022-08-05T17:14:37.613Z,27.64
2022-08-05T17:17:14.567Z,27.66
2022-08-05T17:19:46.073Z,27.64
2022-08-05T17:22:24.418Z,27.65
2022-08-05T17:24:57.467Z,27.68
2022-08-05T17:27:34.006Z,27.69
2022-08-05T17:30:04.791Z,27.70
2022-08-05T17:32:42.482Z,27.66
2022-08-05T17:35:12.292Z,27.73
2022-08-05T17:37:45.091Z,27.69
2022-08-05T17:40:17.253Z,27.67
2022-08-05T17:42:50.498Z,27.67
2022-08-05T17:45:22.169Z,27.69
2022-08-05T17:47:55.732Z,27.68
2022-08-05T17:50:28.234Z,27.66
2022-08-05T17:53:01.465Z,27.68
2022-08-05T17:55:37.353Z,27.67
2022-08-05T17:58:09.659Z,27.68
2022-08-05T18:00:39.852Z,27.69
2022-08-05T18:03:28.113Z,27.70
2022-08-05T18:06:06.115Z,27.70
2022-08-05T18:08:45.024Z,27.68
2022-08-05T18:11:24.026Z,27.69
2022-08-05T18:14:04.237Z,27.72
2022-08-05T18:16:51.330Z,27.69
2022-08-05T18:19:23.059Z,27.71
2022-08-05T18:22:09.592Z,27.73
2022-08-05T18:24:40.163Z,27.62
2022-08-05T18:27:18.170Z,27.66
2022-08-05T18:29:53.506Z,27.66
2022-08-05T18:32:28.207Z,27.66
2022-08-05T18:34:58.605Z,27.67
2022-08-05T18:37:34.547Z,27.66
2022-08-05T18:41:49.974Z,27.68
2022-08-05T18:42:59.906Z,27.66
2022-08-05T18:45:41.318Z,27.66
2022-08-05T18:48:17.445Z,27.65
2022-08-05T18:52:05.067Z,27.66
2022-08-05T18:54:07.266Z,27.66
2022-08-05T18:56:38.040Z,27.65
2022-08-05T18:59:42.874Z,27.65
2022-08-05T19:01:58.057Z,27.61
2022-08-05T19:04:26.783Z,27.71
2022-08-05T19:06:56.801Z,28.00
2022-08-05T19:09:25.324Z,28.00
2022-08-05T19:12:01.117Z,28.09
2022-08-05T19:14:44.622Z,28.10
2022-08-05T19:17:19.383Z,28.10
2022-08-05T19:19:48.682Z,28.13
2022-08-05T19:22:18.762Z,28.13
2022-08-05T19:24:55.811Z,28.15
2022-08-05T19:27:27.882Z,28.18
2022-08-05T19:29:59.149Z,28.16
2022-08-05T19:32:28.181Z,28.15
2022-08-05T19:34:57.915Z,28.14
2022-08-05T19:37:29.756Z,28.17
2022-08-05T19:40:07.962Z,28.12
2022-08-05T19:42:39.082Z,28.13
2022-08-05T19:45:09.093Z,28.12
2022-08-05T19:47:43.158Z,28.09
2022-08-05T19:50:12.942Z,28.07
2022-08-05T19:52:43.025Z,28.07
2022-08-05T19:56:14.237Z,28.05
2022-08-05T19:58:29.195Z,28.02
2022-08-05T20:00:53.306Z,28.02
2022-08-05T20:03:21.844Z,28.03
2022-08-05T20:05:51.618Z,28.02
2022-08-05T20:08:24.389Z,28.02
2022-08-05T20:10:53.472Z,28.03
2022-08-05T20:13:30.192Z,28.03
2022-08-05T20:16:20.301Z,28.03
2022-08-05T20:18:55.404Z,28.05
2022-08-05T20:21:25.628Z,28.03
2022-08-05T20:23:54.200Z,28.03
2022-08-05T20:26:25.743Z,28.02
2022-08-05T20:28:57.468Z,28.03
2022-08-05T20:31:42.855Z,28.03
2022-08-05T20:34:19.197Z,28.01
2022-08-05T20:36:48.666Z,27.98
2022-08-05T20:39:18.638Z,28.00
2022-08-05T20:41:48.247Z,28.00
2022-08-05T20:44:30.438Z,28.00
2022-08-05T20:47:01.154Z,27.98
2022-08-05T20:49:29.753Z,27.97
2022-08-05T20:52:06.988Z,27.96
2022-08-05T20:54:43.052Z,27.95
2022-08-05T20:57:42.018Z,27.94
2022-08-05T21:00:41.120Z,27.94
2022-08-05T21:03:06.866Z,27.95
2022-08-05T21:05:47.526Z,27.85
2022-08-05T21:08:28.089Z,27.85
2022-08-05T21:11:09.145Z,27.87
2022-08-05T21:13:47.539Z,27.86
2022-08-05T21:16:29.997Z,27.81
2022-08-05T21:19:01.396Z,27.80
2022-08-05T21:21:44.122Z,27.79
2022-08-05T21:24:19.360Z,27.79
2022-08-05T21:26:57.917Z,27.76
2022-08-05T21:29:32.172Z,27.79
2022-08-05T21:32:02.451Z,27.76
2022-08-05T21:34:33.140Z,27.77
2022-08-05T21:37:04.862Z,27.77
2022-08-05T21:39:34.682Z,27.76
2022-08-05T21:42:03.291Z,27.75
2022-08-05T21:44:32.248Z,27.74
2022-08-05T21:47:01.205Z,27.74
2022-08-05T21:49:48.180Z,27.76
2022-08-05T21:52:27.186Z,27.74
2022-08-05T21:55:06.157Z,27.75
2022-08-05T21:57:35.617Z,27.74
2022-08-05T22:00:06.148Z,27.74
2022-08-05T22:02:35.649Z,27.74
2022-08-05T22:05:09.051Z,27.75
2022-08-05T22:07:39.455Z,27.74
2022-08-05T22:10:27.483Z,27.73
2022-08-05T22:12:57.350Z,27.74
2022-08-05T22:16:01.137Z,27.75
2022-08-05T22:18:15.089Z,27.73
2022-08-05T22:20:51.560Z,27.77
2022-08-05T22:24:02.565Z,27.75
2022-08-05T22:26:49.979Z,27.73
2022-08-05T22:29:26.308Z,27.72
2022-08-05T22:31:59.389Z,27.72
2022-08-05T22:34:30.033Z,27.73
2022-08-05T22:37:00.133Z,27.74
2022-08-05T22:39:33.254Z,27.73
2022-08-05T22:42:10.738Z,27.71
2022-08-05T22:44:48.193Z,27.69
2022-08-05T22:47:29.752Z,27.69
2022-08-05T22:50:19.630Z,27.71
2022-08-05T22:52:51.424Z,27.70
2022-08-05T22:55:21.817Z,27.71
2022-08-05T22:57:51.148Z,27.73
2022-08-05T23:00:20.802Z,27.74
2022-08-05T23:02:50.605Z,27.73
2022-08-05T23:05:19.202Z,27.72
2022-08-05T23:07:52.394Z,27.73
2022-08-05T23:10:23.999Z,27.70
2022-08-05T23:12:54.391Z,27.68
2022-08-05T23:15:26.909Z,27.66
2022-08-05T23:18:00.143Z,27.62
2022-08-05T23:20:31.143Z,27.62
2022-08-05T23:23:05.958Z,27.67
2022-08-05T23:25:51.047Z,27.64
2022-08-05T23:28:24.082Z,27.63
2022-08-05T23:31:16.176Z,27.60
2022-08-05T23:34:03.828Z,27.64
2022-08-05T23:36:39.752Z,27.64
2022-08-05T23:39:17.409Z,27.66
2022-08-05T23:41:52.542Z,27.68
2022-08-05T23:44:31.122Z,27.68
2022-08-05T23:47:00.225Z,27.66
2022-08-05T23:49:33.879Z,27.67
2022-08-05T23:52:23.304Z,27.66
2022-08-05T23:54:56.126Z,27.64
2022-08-05T23:57:24.580Z,27.57
